Accueil
METAR-TAF:

METAR-TAF

Aéroports :

Chatham Municipal Airport

Chatham, Massachusetts, États-Unis

latitude: 41-41-15N, longitude: 069-59-36W, altitude: 20 m

Observation

Le bulletin a été fait il y a 44 minutes, à 17:05 UTC
Vent 10 kt de sud-ouest avec des rafales jusqu'à 20 kt
Température 15°C
Humidité 100%
Pression 1013 hPa
Visibilité: 6.4 km
Ciel couvert à une hauteur de 200 ft
brume

METAR: KCQX 201705Z AUTO 22010G20KT 4SM BR OVC002 15/15 A2992 RMK AO2 T01500150 TSNO

Heure: 13:49 (17:49 UTC)


TAF: absent

Observations et prévisions météorologiques de plus de 4000 aéroports (messages METAR et TAF).

Les stations disponibles sont représentées par des disques jaunes et rouges sur la carte.

Passer la souris dessus pour voir le nom de la station.

Cliquer dessus pour voir les observations et prévisions météorologiques.

Pour changer de carte: cliquez sur les boutons verts avec une croix noire pour zoomer, sur le bouton vert avec un tiret pour effectuer un zoom arrière, ou sur les flèches vertes pour les cartes adjacentes.


METAR-TAF: